EPZG/IEG METAR and TAF weather

Enter ICAO airport designator
Station Type Date Time Source
EPZG METAR 2018/07/20 13:00 UTC NOAA

EPZG 201300Z 28011KT 250V320 CAVOK 26/10 Q1014


Station Type Date Time Source
EPZG Decoded METAR 2018/07/20 13:00 UTC NOAA

Zielona Gora, Poland (EPZG) 51-56N 015-32E 192M
Jul 20, 2018 - 09:00 AM EDT / 2018.07.20 1300 UTC
Wind: from the W (280 degrees) at 13 MPH (11 KT) (direction variable):0
Visibility: greater than 7 mile(s):0
Temperature: 78 F (26 C)
Dew Point: 50 F (10 C)
Relative Humidity: 36%
Pressure (altimeter): 29.94 in. Hg (1014 hPa)
ob: EPZG 201300Z 28011KT 250V320 CAVOK 26/10 Q1014
cycle: 13

Station Type Date Time Source
EPZG TAF 2012/06/28 21:49 UTC NOAA

TAF EPZG 282000Z 2821/2906 VRB02KT CAVOK
TEMPO 2823/2904 5000 BR PROB30 2900/2904 1500 BR BKN005


Example: see airport list